Weather at Poriya Medical Center

Public forecast

Using degrees Celsius for public forecast. Weather courtesy of forecast.io.

Closest aviation weather report (METAR) to Poriya Medical Center

Closest report is Haifa International Airport, 25.4 nm (47.1 km) W.

2024/05/25 05:26 (retrieved 12 minutes ago)

LLHA 250526Z 25011KT 9999 SCT028 23/18 Q1010

Closest aviation forecast (TAF) to Poriya Medical Center

Forecast is more than 6 hours old.

Closest forecast is Beirut Rafic Hariri International Airport, 64.1 nm (118.7 km) N.

2024/05/24 18:01 (retrieved 12 hours ago)

TAF OLBA 241600Z 2418/2524 20018G25KT 7000 DZ BKN026 PROB40 TEMPO 2418/2509 5000 RA BECMG 2509/2512 26020KT BECMG 2518/2521 20016KT 8000 SCT026